Time;durP1;ratioP1;P1;durP2;ratioP2;P2;SDS_P1;SDS_P2;PMS_P1;PMS_P2;Temp;Humidity;BMP_temperature;BMP_pressure;BME280_temperature;BME280_humidity;BME280_pressure;Samples;Min_cycle;Max_cycle;Signal;HPM_P1;HPM_P2
2023/05/03 00:00:39;;;;;;;5.55;3.15;;;;;;;5.43;86.83;102804.63;4996629;28;20026;-77
2023/05/03 00:03:05;;;;;;;5.18;3.40;;;;;;;5.37;87.20;102799.53;5013675;28;20072;-77
2023/05/03 00:05:31;;;;;;;7.50;3.70;;;;;;;5.31;87.65;102797.06;5010831;28;20049;-77
2023/05/03 00:07:59;;;;;;;11.43;4.13;;;;;;;5.24;87.90;102800.69;5019925;28;20030;-77
2023/05/03 00:10:24;;;;;;;9.25;3.78;;;;;;;5.28;87.98;102804.94;5012280;28;20069;-77
2023/05/03 00:12:50;;;;;;;6.40;3.55;;;;;;;5.22;88.11;102799.84;4991261;28;20027;-77
2023/05/03 00:15:15;;;;;;;5.75;4.00;;;;;;;5.25;88.23;102797.19;5009188;28;20026;-77
2023/05/03 00:17:45;;;;;;;7.05;4.30;;;;;;;5.24;88.69;102804.16;5016964;28;20037;-77
2023/05/03 00:20:11;;;;;;;5.88;3.70;;;;;;;5.19;88.28;102799.88;5012100;28;20032;-77
2023/05/03 00:22:36;;;;;;;10.90;3.70;;;;;;;5.21;88.63;102803.34;5011439;28;20030;-77
2023/05/03 00:25:05;;;;;;;7.07;3.80;;;;;;;5.17;88.57;102805.13;5010840;28;20502;-77
2023/05/03 00:27:31;;;;;;;5.88;3.55;;;;;;;5.15;88.64;102809.53;5016444;28;20029;-77
2023/05/03 00:29:57;;;;;;;5.68;3.50;;;;;;;5.12;88.62;102806.97;5029086;28;20029;-77
2023/05/03 00:32:22;;;;;;;7.20;3.65;;;;;;;5.07;88.42;102801.00;4997655;28;20476;-77
2023/05/03 00:34:55;;;;;;;7.07;3.70;;;;;;;4.99;89.65;102808.97;5009362;28;20025;-77
2023/05/03 00:37:20;;;;;;;;;;;;;;;5.19;86.82;102805.09;5028467;28;20030;-77
2023/05/03 00:39:46;;;;;;;5.55;3.50;;;;;;;5.04;88.76;102804.53;5023555;28;19919;-77
2023/05/03 00:42:11;;;;;;;5.15;3.42;;;;;;;5.06;89.18;102803.66;5018379;28;20037;-77
2023/05/03 00:44:36;;;;;;;8.93;3.47;;;;;;;4.98;88.48;102802.03;5019217;28;20025;-77
2023/05/03 00:47:05;;;;;;;8.00;3.80;;;;;;;4.94;88.90;102803.00;4995883;28;20029;-77
2023/05/03 00:49:32;;;;;;;7.53;3.95;;;;;;;4.89;89.64;102807.44;5028077;28;20021;-77
2023/05/03 00:51:58;;;;;;;6.93;3.92;;;;;;;4.88;90.08;102810.94;4992274;28;20475;-77
2023/05/03 00:54:26;;;;;;;6.00;3.65;;;;;;;4.81;90.35;102809.34;5010337;28;20041;-77
2023/05/03 00:56:56;;;;;;;4.30;3.65;;;;;;;4.80;89.60;102804.97;5010397;28;20076;-77
2023/05/03 00:59:21;;;;;;;7.03;3.75;;;;;;;4.78;90.24;102798.94;4991795;28;20072;-76
2023/05/03 01:01:51;;;;;;;6.95;3.85;;;;;;;4.78;90.18;102795.47;5004597;28;20050;-77
2023/05/03 01:04:22;;;;;;;10.38;4.47;;;;;;;4.79;90.53;102800.66;5013744;28;20050;-77
2023/05/03 01:06:58;;;;;;;9.32;4.10;;;;;;;4.74;89.90;102792.06;5003992;28;20037;-77
2023/05/03 01:09:39;;;;;;;7.43;4.30;;;;;;;4.74;90.34;102792.06;4995729;28;20045;-77
2023/05/03 01:12:30;;;;;;;7.53;4.28;;;;;;;4.74;90.48;102797.28;5010009;28;20033;-77
2023/05/03 01:15:37;;;;;;;11.48;4.50;;;;;;;4.80;90.16;102797.16;4984786;28;20041;-77
2023/05/03 01:18:11;;;;;;;5.97;4.00;;;;;;;4.74;90.93;102794.66;4992692;28;20052;-76
2023/05/03 01:20:38;;;;;;;8.20;4.25;;;;;;;4.73;90.76;102800.78;5020322;28;20026;-77
2023/05/03 01:23:09;;;;;;;6.05;3.80;;;;;;;4.73;90.71;102801.63;5032938;28;20080;-77
2023/05/03 01:25:39;;;;;;;8.18;4.03;;;;;;;4.66;90.74;102800.03;5028518;28;20037;-77
2023/05/03 01:28:04;;;;;;;7.53;4.05;;;;;;;4.66;90.44;102800.03;5020608;28;20021;-74
2023/05/03 01:30:31;;;;;;;8.25;4.40;;;;;;;4.65;90.99;102805.28;5033257;28;20068;-75
2023/05/03 01:33:25;;;;;;;7.65;4.20;;;;;;;4.63;91.38;102800.09;5017162;28;20017;-75
2023/05/03 01:36:05;;;;;;;8.35;4.20;;;;;;;4.60;91.47;102810.56;5031848;28;20644;-75
2023/05/03 01:38:35;;;;;;;7.43;3.90;;;;;;;4.57;91.45;102812.38;5023163;28;20478;-75
2023/05/03 01:41:08;;;;;;;8.45;4.70;;;;;;;4.52;92.44;102807.25;5022406;28;20108;-75
2023/05/03 01:43:36;;;;;;;8.98;4.68;;;;;;;4.49;91.93;102811.66;5031813;28;20021;-75
2023/05/03 01:46:01;;;;;;;12.45;4.60;;;;;;;4.51;92.46;102804.66;5010498;28;20033;-75
2023/05/03 01:48:26;;;;;;;8.35;4.32;;;;;;;4.47;91.73;102806.47;5032003;28;20434;-75
2023/05/03 01:50:53;;;;;;;6.28;4.50;;;;;;;4.48;92.12;102810.78;5015210;28;20060;-75
2023/05/03 01:53:19;;;;;;;7.97;4.40;;;;;;;4.43;92.20;102809.16;5014899;28;20032;-75
2023/05/03 01:55:48;;;;;;;9.55;4.32;;;;;;;4.49;92.67;102803.84;5032236;28;20017;-74
2023/05/03 01:58:13;;;;;;;8.10;5.00;;;;;;;4.39;92.67;102810.91;5020302;28;20429;-75
2023/05/03 02:00:39;;;;;;;9.52;4.35;;;;;;;4.37;92.70;102810.94;5026839;28;20034;-75
2023/05/03 02:03:05;;;;;;;8.07;4.70;;;;;;;4.36;92.23;102809.22;5031475;28;20033;-75
2023/05/03 02:05:30;;;;;;;10.13;4.72;;;;;;;4.34;92.33;102810.13;5027292;28;20099;-75
2023/05/03 02:07:55;;;;;;;7.90;4.28;;;;;;;4.35;92.73;102809.25;4994387;28;20098;-75
2023/05/03 02:10:25;;;;;;;8.90;4.38;;;;;;;4.34;92.93;102812.75;5027921;28;20121;-75
2023/05/03 02:12:51;;;;;;;8.95;4.63;;;;;;;4.34;92.11;102802.31;5027463;28;20052;-75
2023/05/03 02:15:26;;;;;;;10.88;4.57;;;;;;;4.30;92.19;102806.72;5030943;28;20071;-75
2023/05/03 02:17:52;;;;;;;8.50;4.47;;;;;;;4.33;91.97;102809.28;5012435;28;20029;-75
2023/05/03 02:20:18;;;;;;;8.48;4.70;;;;;;;4.29;92.02;102809.34;5029318;28;20060;-75
2023/05/03 02:22:43;;;;;;;7.90;4.35;;;;;;;4.29;92.07;102805.00;5003078;28;20052;-75
2023/05/03 02:25:09;;;;;;;8.32;4.57;;;;;;;4.29;92.41;102794.59;5009331;28;20072;-75
2023/05/03 02:27:34;;;;;;;8.85;4.38;;;;;;;4.26;92.71;102794.63;5000228;28;20057;-75
2023/05/03 02:30:00;;;;;;;11.20;4.50;;;;;;;4.24;91.92;102791.19;5027974;28;20018;-75
2023/05/03 02:32:25;;;;;;;11.95;4.88;;;;;;;4.25;91.79;102786.84;5017153;28;20493;-75
2023/05/03 02:34:51;;;;;;;10.05;4.95;;;;;;;4.23;91.77;102786.88;5029400;28;20036;-75
2023/05/03 02:37:16;;;;;;;8.55;4.88;;;;;;;4.22;91.96;102774.72;5011524;28;20026;-75
2023/05/03 02:39:41;;;;;;;9.38;4.85;;;;;;;4.26;91.96;102768.59;5015814;28;20022;-75
2023/05/03 02:42:08;;;;;;;9.32;4.28;;;;;;;4.25;91.85;102769.47;5011043;28;20026;-75
2023/05/03 02:44:39;;;;;;;8.40;4.93;;;;;;;4.26;91.87;102773.78;5010802;28;20026;-74
2023/05/03 02:47:05;;;;;;;8.57;5.20;;;;;;;4.23;91.99;102768.63;4993224;28;20050;-77
2023/05/03 02:49:30;;;;;;;10.32;4.95;;;;;;;4.25;91.64;102760.78;5012421;28;20049;-75
2023/05/03 02:51:56;;;;;;;13.85;5.22;;;;;;;4.24;91.14;102756.47;5014935;28;20131;-75
2023/05/03 02:54:22;;;;;;;8.60;4.45;;;;;;;4.24;91.76;102749.50;5025092;28;20033;-74
2023/05/03 02:56:47;;;;;;;9.02;4.78;;;;;;;4.28;91.54;102739.91;5003876;28;20442;-74
2023/05/03 02:59:12;;;;;;;8.35;4.68;;;;;;;4.26;91.73;102739.94;5006065;28;20178;-75
2023/05/03 03:01:42;;;;;;;11.90;4.63;;;;;;;4.24;91.75;102749.50;5007886;28;20025;-74
2023/05/03 03:04:14;;;;;;;10.48;4.97;;;;;;;4.23;91.92;102747.78;5031029;28;20046;-75
2023/05/03 03:06:42;;;;;;;9.65;5.07;;;;;;;4.23;91.13;102758.22;5029117;28;20470;-74
2023/05/03 03:09:08;;;;;;;11.27;5.05;;;;;;;4.22;91.77;102761.72;5011580;28;20033;-75
2023/05/03 03:11:34;;;;;;;9.32;4.85;;;;;;;4.19;91.43;102761.75;5010952;28;20029;-75
2023/05/03 03:14:04;;;;;;;9.52;4.85;;;;;;;4.16;92.24;102769.63;4992060;28;20026;-75
2023/05/03 03:16:32;;;;;;;9.95;5.10;;;;;;;4.12;91.78;102765.34;5007859;28;20122;-74
2023/05/03 03:19:01;;;;;;;9.50;4.90;;;;;;;4.13;92.41;102767.06;5015510;28;20025;-74
2023/05/03 03:21:41;;;;;;;9.45;5.80;;;;;;;4.13;92.57;102761.88;5030776;28;20413;-74
2023/05/03 03:24:06;;;;;;;8.90;5.03;;;;;;;4.12;92.61;102762.75;5031239;28;20033;-74
2023/05/03 03:26:35;;;;;;;11.00;5.03;;;;;;;4.09;92.55;102765.41;5021815;28;20056;-74
2023/05/03 03:29:00;;;;;;;9.32;5.10;;;;;;;4.07;91.89;102769.78;4988179;28;20042;-75
2023/05/03 03:31:25;;;;;;;11.82;4.80;;;;;;;4.04;92.49;102778.50;4993473;28;20598;-75
2023/05/03 03:34:30;;;;;;;9.63;4.82;;;;;;;4.03;92.02;102773.31;5009914;28;20077;-75
2023/05/03 03:37:04;;;;;;;11.85;5.22;;;;;;;3.97;92.20;102776.84;4991157;28;20033;-74
2023/05/03 03:39:35;;;;;;;12.15;5.32;;;;;;;3.94;92.39;102776.03;4991362;28;20034;-75
2023/05/03 03:42:41;;;;;;;11.25;5.45;;;;;;;3.96;92.71;102766.47;4990456;28;20032;-77
2023/05/03 03:45:07;;;;;;;11.45;5.57;;;;;;;3.93;91.96;102774.31;4971406;28;20125;-77
2023/05/03 03:47:32;;;;;;;12.40;5.55;;;;;;;3.93;92.78;102774.31;5010536;28;20108;-74
2023/05/03 03:50:00;;;;;;;8.60;5.45;;;;;;;3.95;92.44;102769.97;4992901;28;20037;-74
2023/05/03 03:52:26;;;;;;;11.73;5.85;;;;;;;3.91;92.73;102760.47;5010660;28;20018;-75
2023/05/03 03:54:52;;;;;;;11.20;5.93;;;;;;;3.89;92.79;102772.66;5009707;28;20029;-75
2023/05/03 03:57:17;;;;;;;9.68;5.93;;;;;;;3.93;92.94;102761.31;5026953;28;20025;-75
2023/05/03 03:59:42;;;;;;;10.00;5.70;;;;;;;3.93;92.87;102775.19;5029550;28;20045;-75
2023/05/03 04:02:07;;;;;;;11.48;5.75;;;;;;;3.94;92.84;102783.84;5007253;28;20029;-75
2023/05/03 04:04:33;;;;;;;13.27;6.05;;;;;;;3.87;92.78;102777.88;5009914;28;20568;-75
2023/05/03 04:06:58;;;;;;;10.45;6.07;;;;;;;3.90;93.27;102779.59;5010878;28;20036;-75
2023/05/03 04:09:23;;;;;;;9.27;5.75;;;;;;;3.88;92.92;102776.16;5023417;28;20080;-75
2023/05/03 04:11:49;;;;;;;11.88;6.22;;;;;;;3.85;93.38;102782.25;5028385;28;20033;-75
2023/05/03 04:14:14;;;;;;;8.57;5.88;;;;;;;3.84;93.15;102787.50;5030101;28;20025;-75
2023/05/03 04:16:40;;;;;;;11.27;6.32;;;;;;;3.80;93.39;102784.06;5012351;28;20025;-75
2023/05/03 04:19:05;;;;;;;9.95;6.30;;;;;;;3.80;93.39;102783.22;4983321;28;20112;-75
2023/05/03 04:21:31;;;;;;;11.07;6.40;;;;;;;3.80;93.43;102780.63;5010433;28;20117;-75
2023/05/03 04:23:56;;;;;;;10.60;6.13;;;;;;;3.76;93.74;102782.41;4998546;28;20041;-75
2023/05/03 04:26:23;;;;;;;12.00;6.63;;;;;;;3.77;93.66;102777.16;5010306;28;20030;-75
2023/05/03 04:28:48;;;;;;;9.05;6.30;;;;;;;3.79;94.01;102777.16;5010772;28;20026;-75
2023/05/03 04:31:14;;;;;;;11.00;6.68;;;;;;;3.75;94.27;102780.69;5009351;28;20045;-76
2023/05/03 04:33:40;;;;;;;10.45;6.53;;;;;;;3.78;94.19;102785.84;5010689;28;20406;-75
2023/05/03 04:36:08;;;;;;;11.48;6.65;;;;;;;3.76;93.86;102788.47;5008331;28;20026;-75
2023/05/03 04:38:34;;;;;;;23.33;7.05;;;;;;;3.78;94.48;102802.31;5008272;28;20033;-75
2023/05/03 04:40:59;;;;;;;7.50;6.70;;;;;;;3.83;93.79;102804.00;4990583;28;20467;-75
2023/05/03 04:43:25;;;;;;;11.15;6.63;;;;;;;3.97;93.79;102809.84;4989939;28;20410;-75
2023/05/03 04:45:52;;;;;;;10.13;6.68;;;;;;;4.12;93.18;102817.47;5029126;28;20112;-75
2023/05/03 04:48:17;;;;;;;10.35;6.50;;;;;;;4.17;93.47;102825.19;4996944;28;20032;-75
2023/05/03 04:50:43;;;;;;;9.48;6.45;;;;;;;4.25;93.08;102824.19;5002000;28;20029;-75
2023/05/03 04:53:12;;;;;;;12.18;6.28;;;;;;;4.30;92.50;102831.94;5012843;28;20160;-75
2023/05/03 04:55:37;;;;;;;12.98;6.88;;;;;;;4.23;92.15;102831.16;5021975;28;20025;-75
2023/05/03 04:58:02;;;;;;;11.25;6.75;;;;;;;4.29;91.54;102841.50;5032711;28;20035;-75
2023/05/03 05:00:28;;;;;;;12.88;6.40;;;;;;;4.28;91.91;102844.97;4995652;28;20474;-74
2023/05/03 05:02:54;;;;;;;10.95;6.78;;;;;;;4.26;92.12;102846.75;5009793;28;20133;-75
2023/05/03 05:05:19;;;;;;;10.45;7.15;;;;;;;4.27;91.48;102847.59;5001041;28;20365;-75
2023/05/03 05:07:44;;;;;;;14.15;7.10;;;;;;;4.33;91.83;102853.56;5001113;28;20049;-75
2023/05/03 05:10:11;;;;;;;10.63;7.13;;;;;;;4.40;91.70;102855.22;5011732;28;20545;-75
2023/05/03 05:12:37;;;;;;;9.82;6.97;;;;;;;4.40;91.30;102850.00;5025909;28;20401;-75
2023/05/03 05:15:03;;;;;;;13.25;6.57;;;;;;;4.45;91.23;102847.34;5013115;28;20022;-75
2023/05/03 05:17:29;;;;;;;11.27;7.30;;;;;;;4.53;90.86;102849.81;5019038;28;20022;-75
2023/05/03 05:19:54;;;;;;;11.65;6.35;;;;;;;4.60;90.70;102846.22;5016939;28;20113;-75
2023/05/03 05:22:20;;;;;;;12.15;7.07;;;;;;;4.65;89.91;102840.03;5028311;28;20409;-75
2023/05/03 05:24:45;;;;;;;15.27;8.25;;;;;;;4.74;89.77;102844.22;5012624;28;20032;-75
2023/05/03 05:27:11;;;;;;;14.77;7.43;;;;;;;4.80;88.85;102846.72;5015717;28;20397;-75
2023/05/03 05:29:36;;;;;;;12.65;6.38;;;;;;;4.87;88.69;102835.31;5015220;28;20025;-75
2023/05/03 05:32:04;;;;;;;11.75;6.50;;;;;;;4.90;88.57;102844.81;5031090;28;20025;-75
2023/05/03 05:34:30;;;;;;;11.77;6.70;;;;;;;4.97;88.25;102842.06;5032169;28;20045;-75
2023/05/03 05:36:55;;;;;;;12.07;6.25;;;;;;;5.03;87.53;102841.94;5032988;28;20101;-75
2023/05/03 05:39:22;;;;;;;13.02;6.20;;;;;;;5.09;87.36;102840.09;5032362;28;20195;-75
2023/05/03 05:41:48;;;;;;;6.72;5.53;;;;;;;5.17;86.54;102840.81;5001956;28;20603;-74
2023/05/03 05:44:13;;;;;;;12.88;5.97;;;;;;;5.26;85.94;102843.28;5028338;28;20045;-74
2023/05/03 05:46:38;;;;;;;9.80;6.35;;;;;;;5.30;85.60;102837.94;5016421;28;20026;-75
2023/05/03 05:49:05;;;;;;;10.52;6.20;;;;;;;5.37;85.87;102846.50;4996659;28;20045;-74
2023/05/03 05:51:31;;;;;;;7.72;6.20;;;;;;;5.40;85.02;102850.81;4977766;28;20077;-74
2023/05/03 05:53:57;;;;;;;7.82;5.70;;;;;;;5.44;84.69;102848.09;5012775;28;20025;-74
2023/05/03 05:56:22;;;;;;;8.50;5.75;;;;;;;5.50;85.23;102842.75;5014984;28;20049;-75
2023/05/03 05:58:48;;;;;;;8.25;5.90;;;;;;;5.55;84.89;102850.47;5001509;28;20066;-74
2023/05/03 06:01:13;;;;;;;9.48;6.10;;;;;;;5.60;85.03;102854.75;4990372;28;20026;-74
2023/05/03 06:03:49;;;;;;;11.23;6.30;;;;;;;5.66;84.88;102854.63;5003561;28;20501;-74
2023/05/03 06:06:14;;;;;;;13.02;6.15;;;;;;;5.75;85.24;102853.56;5010151;28;20037;-74
2023/05/03 06:08:40;;;;;;;7.95;5.70;;;;;;;5.83;84.48;102856.00;5011047;28;20014;-74
2023/05/03 06:11:05;;;;;;;9.27;5.93;;;;;;;5.88;84.35;102855.00;5011664;28;20022;-75
2023/05/03 06:13:33;;;;;;;10.98;5.80;;;;;;;5.98;83.61;102855.66;5012583;28;20030;-74
2023/05/03 06:15:58;;;;;;;10.30;5.90;;;;;;;6.06;83.33;102843.31;5010542;28;20153;-74
2023/05/03 06:18:23;;;;;;;12.50;5.65;;;;;;;6.13;83.37;102842.28;5011911;28;20504;-75
2023/05/03 06:20:49;;;;;;;10.40;6.10;;;;;;;6.20;83.22;102841.22;5012350;28;20026;-75
2023/05/03 06:23:21;;;;;;;12.57;6.07;;;;;;;6.26;82.50;102840.22;5012486;28;20026;-75
2023/05/03 06:25:50;;;;;;;8.10;5.85;;;;;;;6.40;82.78;102839.88;5019572;28;20088;-75
2023/05/03 06:28:15;;;;;;;12.05;5.78;;;;;;;6.51;82.80;102843.13;5011518;28;20037;-75
2023/05/03 06:30:46;;;;;;;11.65;5.70;;;;;;;6.57;81.62;102845.56;4995351;28;20026;-74
2023/05/03 06:33:13;;;;;;;8.00;5.80;;;;;;;6.69;81.97;102840.00;5011515;28;20026;-75
2023/05/03 06:35:38;;;;;;;9.05;5.75;;;;;;;6.73;80.68;102846.03;5012011;28;20026;-75
2023/05/03 06:38:04;;;;;;;9.52;5.97;;;;;;;6.79;80.57;102840.63;5012429;28;20045;-75
2023/05/03 06:40:29;;;;;;;9.50;6.13;;;;;;;6.95;81.08;102830.63;4999397;28;20562;-75
2023/05/03 06:42:54;;;;;;;9.38;6.13;;;;;;;7.07;80.80;102825.91;5010126;28;20097;-75
2023/05/03 06:45:20;;;;;;;8.20;5.28;;;;;;;7.21;79.55;102830.78;5009908;28;20398;-75
2023/05/03 06:47:45;;;;;;;9.73;5.75;;;;;;;7.32;79.13;102820.88;5018358;28;20479;-76
2023/05/03 06:50:10;;;;;;;11.00;5.82;;;;;;;7.38;78.07;102825.06;5005253;28;20037;-74
2023/05/03 06:52:36;;;;;;;9.02;5.68;;;;;;;7.62;78.10;102813.88;5011551;28;20474;-75
2023/05/03 06:55:05;;;;;;;12.55;5.90;;;;;;;7.75;76.04;102820.44;4991903;28;20029;-76
2023/05/03 06:57:31;;;;;;;10.82;5.72;;;;;;;7.89;75.38;102811.31;5003615;28;20100;-76
2023/05/03 06:59:56;;;;;;;10.02;5.65;;;;;;;8.03;74.96;102815.22;5009046;28;20024;-77
2023/05/03 07:02:21;;;;;;;12.05;5.75;;;;;;;8.25;74.55;102810.13;4991693;28;20043;-76
2023/05/03 07:04:47;;;;;;;11.57;6.10;;;;;;;8.44;74.31;102811.28;5010576;28;20068;-76
2023/05/03 07:07:14;;;;;;;10.10;5.53;;;;;;;8.66;71.94;102811.41;5012872;28;20107;-76
2023/05/03 07:09:39;;;;;;;8.57;5.07;;;;;;;8.83;71.48;102823.09;5010509;28;20556;-76
2023/05/03 07:12:05;;;;;;;10.48;5.50;;;;;;;8.88;70.18;102821.16;5010113;28;20110;-75
2023/05/03 07:14:30;;;;;;;11.05;5.05;;;;;;;9.05;69.89;102824.03;5014966;28;20029;-75
2023/05/03 07:17:00;;;;;;;8.98;5.10;;;;;;;9.27;69.36;102813.63;5006307;28;20041;-75
2023/05/03 07:19:26;;;;;;;9.48;5.13;;;;;;;9.43;69.42;102807.72;5010484;28;20021;-75
2023/05/03 07:21:51;;;;;;;12.02;5.50;;;;;;;9.58;68.83;102808.06;5011385;28;20092;-75
2023/05/03 07:24:17;;;;;;;9.07;5.15;;;;;;;9.65;67.97;102814.81;5010959;28;20033;-75
2023/05/03 07:26:43;;;;;;;9.23;5.35;;;;;;;9.67;67.02;102819.09;5010526;28;20096;-75
2023/05/03 07:29:12;;;;;;;10.65;5.38;;;;;;;9.88;66.92;102819.16;5015776;28;20029;-74
2023/05/03 07:31:38;;;;;;;10.85;5.40;;;;;;;9.99;65.67;102819.56;5002964;28;20088;-77
2023/05/03 07:34:03;;;;;;;7.80;5.20;;;;;;;10.22;66.02;102811.66;5007913;28;20030;-77
2023/05/03 07:36:29;;;;;;;9.32;5.72;;;;;;;10.34;64.17;102805.03;5010421;28;20544;-76
2023/05/03 07:38:54;;;;;;;10.57;4.82;;;;;;;10.50;64.36;102805.25;5020026;28;20512;-77
2023/05/03 07:41:20;;;;;;;8.38;4.85;;;;;;;10.65;63.12;102789.66;5012902;28;20033;-75
2023/05/03 07:43:45;;;;;;;9.18;4.97;;;;;;;10.89;61.57;102792.16;4992034;28;20564;-77
2023/05/03 07:46:10;;;;;;;10.05;4.80;;;;;;;10.84;61.61;102794.16;5008627;28;20034;-76
2023/05/03 07:48:48;;;;;;;8.75;5.07;;;;;;;10.88;61.54;102801.84;5008986;28;20029;-76
2023/05/03 07:51:13;;;;;;;9.20;4.88;;;;;;;10.93;60.07;102793.72;5008262;28;20029;-76
2023/05/03 07:54:06;;;;;;;8.75;4.50;;;;;;;11.15;61.18;102783.94;5010562;28;20022;-76
2023/05/03 07:56:32;;;;;;;6.95;4.90;;;;;;;11.23;58.82;102779.19;5002208;28;20138;-76
2023/05/03 07:58:57;;;;;;;5.65;4.53;;;;;;;11.39;57.90;102773.22;4976625;28;20030;-74
2023/05/03 08:01:23;;;;;;;12.60;5.07;;;;;;;11.66;58.56;102771.91;5008076;28;20119;-74
2023/05/03 08:03:51;;;;;;;6.03;3.95;;;;;;;11.95;55.13;102769.66;4971814;28;27601;-74
2023/05/03 08:06:17;;;;;;;9.68;4.47;;;;;;;12.05;55.90;102770.94;4990276;28;20053;-74
2023/05/03 08:08:43;;;;;;;32.28;6.75;;;;;;;12.02;55.28;102760.56;4989818;28;20022;-74
2023/05/03 08:11:08;;;;;;;9.52;4.55;;;;;;;12.22;55.46;102760.41;4990206;28;20076;-74
2023/05/03 08:13:36;;;;;;;10.27;4.70;;;;;;;12.41;55.03;102752.41;4990727;28;20030;-73
2023/05/03 08:16:01;;;;;;;8.88;4.30;;;;;;;12.47;54.34;102736.25;4972157;28;20077;-75
2023/05/03 08:18:27;;;;;;;5.82;4.10;;;;;;;12.47;52.87;102736.25;4990190;28;20027;-77
2023/05/03 08:20:52;;;;;;;7.95;4.22;;;;;;;12.58;53.49;102748.91;4989687;28;20100;-77
2023/05/03 08:23:18;;;;;;;8.38;4.20;;;;;;;12.74;53.69;102760.34;4987362;28;20030;-77
2023/05/03 08:25:44;;;;;;;8.10;4.13;;;;;;;13.02;52.68;102750.03;4970827;28;20137;-78
2023/05/03 08:28:10;;;;;;;7.72;4.00;;;;;;;13.08;52.46;102749.72;4991852;28;20030;-75
2023/05/03 08:30:36;;;;;;;7.22;3.78;;;;;;;13.25;51.39;102745.34;4972079;28;20053;-75
2023/05/03 08:33:01;;;;;;;6.53;3.75;;;;;;;13.24;50.48;102738.34;4991760;28;20490;-75
2023/05/03 08:35:27;;;;;;;8.57;4.05;;;;;;;13.35;49.24;102746.53;4984471;28;20029;-78
2023/05/03 08:37:52;;;;;;;6.68;4.13;;;;;;;13.42;49.38;102738.19;4984829;28;20105;-77
2023/05/03 08:40:21;;;;;;;9.85;3.65;;;;;;;13.69;48.01;102735.78;4995029;28;20041;-77
2023/05/03 08:42:47;;;;;;;6.47;3.60;;;;;;;13.79;47.38;102730.81;4989944;28;20050;-77
2023/05/03 08:45:14;;;;;;;5.85;3.22;;;;;;;13.82;47.07;102735.91;4990053;28;20129;-74
2023/05/03 08:47:43;;;;;;;11.40;4.40;;;;;;;13.78;46.66;102740.53;4989194;28;20026;-74
2023/05/03 08:50:12;;;;;;;7.45;3.80;;;;;;;13.92;46.80;102738.88;4992783;28;20018;-73
2023/05/03 08:52:43;;;;;;;9.43;3.88;;;;;;;14.19;45.99;102747.88;4971238;28;20019;-73
2023/05/03 08:55:10;;;;;;;8.75;3.72;;;;;;;14.30;45.43;102748.09;4987019;28;20026;-73
2023/05/03 08:57:35;;;;;;;7.35;3.80;;;;;;;14.46;45.86;102747.22;4973190;28;20379;-74
2023/05/03 09:00:04;;;;;;;7.80;3.88;;;;;;;14.59;45.53;102754.34;4988998;28;20048;-74
2023/05/03 09:02:33;;;;;;;7.20;3.88;;;;;;;14.69;43.92;102746.69;4993156;28;20379;-74
2023/05/03 09:05:02;;;;;;;8.18;3.70;;;;;;;14.72;45.42;102742.03;5000026;28;20204;-73
2023/05/03 09:07:27;;;;;;;4.78;3.70;;;;;;;14.93;43.53;102737.22;4974765;28;20034;-74
2023/05/03 09:09:53;;;;;;;5.30;3.70;;;;;;;15.21;44.18;102748.72;4976589;28;20035;-74
2023/05/03 09:12:39;;;;;;;8.85;3.83;;;;;;;15.25;44.17;102752.94;4978960;28;20019;-73
2023/05/03 09:15:05;;;;;;;5.57;3.45;;;;;;;15.25;43.32;102734.38;4988679;28;20053;-74
2023/05/03 09:17:32;;;;;;;11.00;4.00;;;;;;;15.42;43.33;102742.09;4995288;28;20026;-74
2023/05/03 09:19:58;;;;;;;8.48;4.22;;;;;;;15.58;42.78;102744.63;4988057;28;20033;-73
2023/05/03 09:22:29;;;;;;;6.28;3.42;;;;;;;15.61;42.09;102740.00;4989542;28;20022;-73
2023/05/03 09:24:57;;;;;;;7.82;3.67;;;;;;;15.73;41.68;102737.47;4998615;28;20026;-74
2023/05/03 09:27:29;;;;;;;9.35;3.60;;;;;;;15.70;42.16;102737.69;4989211;28;20040;-75
2023/05/03 09:29:54;;;;;;;6.13;3.95;;;;;;;15.83;41.59;102743.88;4985955;28;20087;-75
2023/05/03 09:32:24;;;;;;;5.93;3.67;;;;;;;15.86;41.33;102746.34;5000706;28;20109;-75
2023/05/03 09:35:07;;;;;;;6.38;3.60;;;;;;;15.76;41.06;102737.28;4992563;28;23172;-74
2023/05/03 09:37:37;;;;;;;5.55;3.65;;;;;;;15.92;41.45;102732.66;4976508;28;20500;-75
2023/05/03 09:40:10;;;;;;;6.53;3.70;;;;;;;15.80;41.00;102733.47;4995384;28;20045;-75
2023/05/03 09:42:35;;;;;;;6.93;3.40;;;;;;;15.94;41.60;102728.09;4993556;28;20038;-75
2023/05/03 09:45:01;;;;;;;6.40;3.70;;;;;;;16.28;42.17;102729.34;4996389;28;20092;-76
2023/05/03 09:47:27;;;;;;;5.45;3.28;;;;;;;16.41;40.03;102722.25;4991462;28;20490;-73
2023/05/03 09:50:01;;;;;;;4.45;3.10;;;;;;;16.56;40.67;102728.31;4998310;28;20093;-75
2023/05/03 09:52:29;;;;;;;8.88;5.72;;;;;;;16.88;38.49;102723.44;4967871;28;20026;-73
2023/05/03 09:54:54;;;;;;;8.23;3.70;;;;;;;17.71;37.89;102720.97;4991332;28;20378;-75
2023/05/03 09:57:20;;;;;;;5.97;3.08;;;;;;;19.13;34.92;102710.81;4990510;28;20032;-75
2023/05/03 09:59:46;;;;;;;5.65;3.17;;;;;;;20.32;33.16;102701.75;4991773;28;20033;-75
2023/05/03 10:02:18;;;;;;;6.55;2.90;;;;;;;20.93;31.15;102700.94;4996087;28;20066;-75
2023/05/03 10:04:49;;;;;;;6.65;3.90;;;;;;;21.14;31.21;102715.09;4992141;28;20046;-75
2023/05/03 10:07:17;;;;;;;6.82;3.80;;;;;;;20.47;31.02;102707.66;4989492;28;20030;-76
2023/05/03 10:09:58;;;;;;;6.38;3.30;;;;;;;20.63;33.04;102697.31;4990953;28;20116;-75
2023/05/03 10:12:26;;;;;;;5.68;3.30;;;;;;;20.20;31.89;102696.59;4981391;28;20073;-75
2023/05/03 10:14:54;;;;;;;10.50;3.42;;;;;;;20.53;31.39;102703.59;4991102;28;20038;-75
2023/05/03 10:17:25;;;;;;;5.80;3.20;;;;;;;20.53;31.39;102691.06;4987494;28;20222;-75
2023/05/03 10:19:56;;;;;;;7.73;3.20;;;;;;;20.56;31.72;102697.97;4973931;28;20031;-75
2023/05/03 10:22:23;;;;;;;5.40;3.55;;;;;;;20.83;31.17;102695.56;4981119;28;20100;-75
2023/05/03 10:25:01;;;;;;;5.00;3.15;;;;;;;20.84;31.58;102704.44;4992492;28;20053;-74
2023/05/03 10:27:44;;;;;;;6.88;3.30;;;;;;;21.32;32.83;102709.13;4991364;28;20486;-75
2023/05/03 10:30:31;;;;;;;6.15;3.78;;;;;;;21.44;32.92;102698.13;4992227;28;20596;-75
2023/05/03 10:32:57;;;;;;;7.35;3.70;;;;;;;21.71;30.69;102692.09;4996988;28;20360;-75
2023/05/03 10:35:27;;;;;;;6.75;3.60;;;;;;;21.56;29.91;102699.69;4994384;28;20041;-75
2023/05/03 10:37:55;;;;;;;5.07;3.25;;;;;;;21.35;31.34;102701.66;4998544;28;20149;-75
2023/05/03 10:40:21;;;;;;;7.82;3.30;;;;;;;21.18;30.90;102700.44;4996953;28;20410;-75
2023/05/03 10:42:59;;;;;;;5.35;3.42;;;;;;;19.99;32.46;102700.09;4991045;28;20030;-75
2023/05/03 10:45:27;;;;;;;6.10;3.40;;;;;;;19.22;33.67;102690.56;4992493;28;20030;-75
2023/05/03 10:48:10;;;;;;;8.35;3.40;;;;;;;18.87;35.41;102693.38;4990624;28;20394;-75
2023/05/03 10:50:39;;;;;;;5.30;3.60;;;;;;;17.98;34.96;102713.56;4984791;28;20036;-75
2023/05/03 10:53:05;;;;;;;8.77;4.20;;;;;;;17.37;36.21;102707.44;4991897;28;20495;-75
2023/05/03 10:55:31;;;;;;;5.25;3.78;;;;;;;16.82;37.63;102703.44;4992586;28;20026;-75
2023/05/03 10:57:57;;;;;;;6.65;3.65;;;;;;;16.67;38.08;102704.50;4986076;28;20028;-75
2023/05/03 11:00:30;;;;;;;6.68;4.03;;;;;;;16.39;39.25;102705.53;4974308;28;20034;-75
2023/05/03 11:03:17;;;;;;;8.07;3.70;;;;;;;16.49;39.14;102705.75;4992242;28;20523;-74
2023/05/03 11:05:42;;;;;;;6.72;4.00;;;;;;;16.58;40.19;102702.47;4991117;28;20133;-74
2023/05/03 11:08:16;;;;;;;9.27;4.45;;;;;;;16.41;39.30;102698.34;4991779;28;20117;-75
2023/05/03 11:10:47;;;;;;;11.00;4.07;;;;;;;16.54;40.64;102699.16;4991396;28;20020;-75
2023/05/03 11:13:13;;;;;;;5.18;3.53;;;;;;;16.69;40.86;102683.13;4990815;28;20084;-75
2023/05/03 11:15:39;;;;;;;7.00;4.28;;;;;;;16.58;41.52;102681.19;4984629;28;20042;-75
2023/05/03 11:18:10;;;;;;;5.13;3.92;;;;;;;16.44;40.35;102684.84;4997077;28;20038;-75
2023/05/03 11:20:37;;;;;;;8.18;4.53;;;;;;;16.42;40.00;102683.25;4990717;28;20027;-76
2023/05/03 11:23:06;;;;;;;10.18;4.50;;;;;;;16.37;39.79;102683.53;4989443;28;20387;-75
2023/05/03 11:25:32;;;;;;;7.00;4.15;;;;;;;16.61;40.22;102667.69;4990760;28;20498;-75
2023/05/03 11:28:05;;;;;;;6.63;4.13;;;;;;;16.87;40.75;102674.72;4991524;28;20026;-75
2023/05/03 11:30:33;;;;;;;8.57;4.50;;;;;;;16.72;40.00;102664.31;4991845;28;20034;-75
2023/05/03 11:32:59;;;;;;;6.40;4.30;;;;;;;16.76;40.03;102656.00;4984434;28;20528;-76